createdAt,value
2022-12-08T00:01:11.883Z,22.67
2022-12-08T00:03:38.935Z,24.95
2022-12-08T00:06:26.372Z,18.15
2022-12-08T00:09:32.057Z,19.50
2022-12-08T00:12:09.768Z,21.33
2022-12-08T00:14:39.410Z,20.40
2022-12-08T00:17:08.182Z,23.35
2022-12-08T00:19:35.065Z,19.85
2022-12-08T00:22:03.290Z,17.05
2022-12-08T00:24:32.529Z,13.80
2022-12-08T00:26:59.243Z,15.95
2022-12-08T00:29:25.974Z,15.43
2022-12-08T00:31:53.076Z,17.10
2022-12-08T00:34:20.458Z,16.20
2022-12-08T00:36:47.441Z,16.58
2022-12-08T00:39:16.067Z,17.08
2022-12-08T00:42:01.472Z,15.10
2022-12-08T00:44:28.377Z,14.23
2022-12-08T00:46:55.461Z,14.10
2022-12-08T00:49:22.538Z,20.38
2022-12-08T00:51:49.563Z,17.02
2022-12-08T00:54:16.720Z,12.43
2022-12-08T00:56:43.430Z,16.63
2022-12-08T00:59:10.536Z,14.75
2022-12-08T01:01:37.341Z,15.18
2022-12-08T01:04:10.440Z,16.48
2022-12-08T01:06:37.918Z,15.02
2022-12-08T01:09:06.645Z,13.77
2022-12-08T01:11:33.758Z,17.38
2022-12-08T01:14:01.005Z,20.70
2022-12-08T01:16:30.115Z,13.43
2022-12-08T01:18:57.931Z,14.30
2022-12-08T01:21:25.416Z,17.10
2022-12-08T01:23:52.503Z,11.98
2022-12-08T01:26:19.963Z,17.48
2022-12-08T01:28:47.764Z,12.20
2022-12-08T01:31:17.236Z,18.30
2022-12-08T01:33:44.544Z,14.15
2022-12-08T01:36:25.013Z,14.35
2022-12-08T01:38:53.450Z,18.60
2022-12-08T01:41:26.462Z,16.10
2022-12-08T01:44:01.031Z,16.70
2022-12-08T01:46:30.259Z,14.50
2022-12-08T01:49:03.919Z,21.67
2022-12-08T01:51:34.860Z,22.27
2022-12-08T01:54:03.428Z,11.75
2022-12-08T01:56:42.237Z,16.63
2022-12-08T01:59:10.226Z,15.45
2022-12-08T02:01:37.307Z,21.05
2022-12-08T02:04:05.247Z,14.18
2022-12-08T02:06:36.271Z,17.92
2022-12-08T02:09:05.242Z,13.40
2022-12-08T02:11:32.053Z,13.85
2022-12-08T02:14:01.934Z,14.77
2022-12-08T02:16:35.594Z,14.00
2022-12-08T02:19:31.361Z,13.80
2022-12-08T02:22:19.728Z,13.25
2022-12-08T02:25:05.111Z,16.30
2022-12-08T02:27:57.108Z,12.77
2022-12-08T02:30:43.262Z,15.82
2022-12-08T02:33:44.218Z,15.80
2022-12-08T02:36:25.324Z,13.48
2022-12-08T02:39:12.651Z,11.73
2022-12-08T02:41:48.279Z,14.07
2022-12-08T02:44:22.756Z,16.10
2022-12-08T02:46:57.261Z,17.55
2022-12-08T02:49:34.056Z,16.67
2022-12-08T02:52:12.940Z,19.33
2022-12-08T02:54:43.302Z,17.35
2022-12-08T02:57:31.958Z,18.35
2022-12-08T03:00:10.000Z,17.17
2022-12-08T03:02:51.655Z,15.40
2022-12-08T03:05:29.031Z,14.02
2022-12-08T03:07:58.731Z,18.60
2022-12-08T03:10:37.197Z,19.60
2022-12-08T03:13:20.847Z,14.30
2022-12-08T03:15:50.710Z,14.82
2022-12-08T03:18:20.524Z,17.42
2022-12-08T03:20:48.914Z,14.52
2022-12-08T03:23:17.561Z,13.23
2022-12-08T03:25:50.815Z,17.05
2022-12-08T03:28:17.592Z,20.00
2022-12-08T03:30:47.444Z,16.23
2022-12-08T03:33:24.535Z,18.02
2022-12-08T03:35:53.074Z,17.27
2022-12-08T03:38:19.894Z,15.63
2022-12-08T03:41:09.547Z,20.40
2022-12-08T03:43:36.381Z,16.60
2022-12-08T03:46:03.223Z,13.80
2022-12-08T03:48:30.120Z,16.63
2022-12-08T03:50:56.984Z,20.70
2022-12-08T03:53:26.972Z,18.17
2022-12-08T03:55:54.695Z,23.77
2022-12-08T03:58:21.458Z,20.67
2022-12-08T04:00:48.176Z,17.77
2022-12-08T04:03:15.014Z,16.55
2022-12-08T04:05:41.810Z,18.67
2022-12-08T04:08:08.602Z,17.30
2022-12-08T04:10:35.394Z,18.42
2022-12-08T04:13:02.091Z,18.13
2022-12-08T04:15:28.809Z,14.27
2022-12-08T04:17:55.648Z,17.77
2022-12-08T04:20:22.361Z,19.98
2022-12-08T04:22:49.048Z,21.00
2022-12-08T04:25:16.116Z,22.05
2022-12-08T04:27:42.852Z,23.52
2022-12-08T04:30:10.020Z,28.70
2022-12-08T04:32:36.721Z,22.25
2022-12-08T04:35:03.819Z,20.88
2022-12-08T04:37:30.579Z,17.92
2022-12-08T04:39:57.328Z,21.63
2022-12-08T04:42:24.071Z,19.60
2022-12-08T04:44:50.792Z,27.33
2022-12-08T04:47:17.544Z,24.52
2022-12-08T04:49:44.288Z,17.88
2022-12-08T04:52:10.992Z,24.50
2022-12-08T04:54:37.726Z,15.18
2022-12-08T04:57:04.781Z,15.20
2022-12-08T04:59:31.635Z,18.23
2022-12-08T05:01:58.423Z,20.25
2022-12-08T05:04:25.406Z,24.17
2022-12-08T05:06:52.106Z,21.20
2022-12-08T05:09:18.803Z,20.80
2022-12-08T05:11:49.103Z,18.58
2022-12-08T05:14:17.721Z,21.23
2022-12-08T05:16:45.740Z,24.63
2022-12-08T05:19:13.611Z,21.70
2022-12-08T05:21:40.422Z,20.95
2022-12-08T05:24:07.334Z,16.88
2022-12-08T05:26:34.101Z,16.83
2022-12-08T05:29:00.954Z,14.52
2022-12-08T05:31:27.777Z,19.80
2022-12-08T05:33:57.357Z,19.10
2022-12-08T05:36:26.405Z,18.52
2022-12-08T05:38:53.115Z,24.55
2022-12-08T05:41:21.057Z,14.35
2022-12-08T05:43:48.190Z,20.55
2022-12-08T05:46:15.630Z,21.60
2022-12-08T05:48:42.544Z,19.27
2022-12-08T05:51:19.631Z,18.63
2022-12-08T05:53:47.775Z,18.10
2022-12-08T05:56:14.638Z,131.43
2022-12-08T05:58:41.472Z,36.20
2022-12-08T06:01:08.292Z,36.47
2022-12-08T06:03:35.072Z,44.38
2022-12-08T06:06:01.827Z,34.17
2022-12-08T06:08:28.637Z,15.40
2022-12-08T06:10:55.338Z,14.73
2022-12-08T06:13:22.060Z,18.48
2022-12-08T06:15:48.808Z,24.00
2022-12-08T06:18:15.572Z,20.70
2022-12-08T06:20:42.271Z,23.13
2022-12-08T06:23:08.989Z,20.13
2022-12-08T06:25:35.696Z,16.48
2022-12-08T06:28:05.226Z,22.85
2022-12-08T06:30:32.072Z,19.20
2022-12-08T06:32:58.807Z,21.60
2022-12-08T06:35:25.532Z,19.67
2022-12-08T06:37:52.249Z,26.63
2022-12-08T06:40:19.112Z,16.05
2022-12-08T06:42:46.826Z,29.02
2022-12-08T06:45:16.184Z,32.33
2022-12-08T06:47:43.037Z,24.70
2022-12-08T06:50:11.131Z,29.58
2022-12-08T06:52:47.327Z,29.35
2022-12-08T06:55:42.414Z,21.27
2022-12-08T06:58:06.551Z,21.48
2022-12-08T07:00:33.201Z,25.20
2022-12-08T07:02:59.854Z,34.15
2022-12-08T07:05:26.631Z,35.45
2022-12-08T07:07:53.408Z,29.20
2022-12-08T07:10:20.064Z,33.75
2022-12-08T07:12:46.757Z,29.52
2022-12-08T07:15:13.421Z,30.83
2022-12-08T07:17:40.074Z,31.23
2022-12-08T07:20:07.719Z,29.88
2022-12-08T07:22:34.484Z,30.42
2022-12-08T07:25:01.117Z,28.63
2022-12-08T07:27:28.109Z,23.42
2022-12-08T07:29:54.751Z,23.38
2022-12-08T07:32:21.420Z,18.67
2022-12-08T07:34:48.432Z,24.70
2022-12-08T07:37:15.122Z,25.73
2022-12-08T07:39:41.911Z,27.77
2022-12-08T07:42:08.589Z,18.52
2022-12-08T07:44:35.257Z,32.17
2022-12-08T07:47:01.887Z,30.13
2022-12-08T07:49:28.640Z,21.58
2022-12-08T07:51:55.282Z,34.42
2022-12-08T07:54:21.979Z,28.98
2022-12-08T07:56:48.609Z,24.75
2022-12-08T07:59:15.255Z,25.38
2022-12-08T08:01:45.351Z,34.72
2022-12-08T08:04:12.418Z,21.52
2022-12-08T08:06:39.392Z,19.48
2022-12-08T08:09:06.135Z,32.63
2022-12-08T08:11:32.933Z,38.20
2022-12-08T08:13:59.719Z,24.95
2022-12-08T08:16:26.540Z,25.48
2022-12-08T08:18:53.475Z,31.63
2022-12-08T08:21:45.512Z,24.60
2022-12-08T08:24:07.999Z,26.35
2022-12-08T08:26:34.733Z,26.25
2022-12-08T08:29:01.426Z,29.52
2022-12-08T08:31:28.232Z,33.10
2022-12-08T08:33:56.781Z,29.75
2022-12-08T08:36:23.523Z,22.02
2022-12-08T08:38:50.175Z,22.73
2022-12-08T08:41:16.849Z,23.73
2022-12-08T08:43:43.661Z,29.85
2022-12-08T08:46:11.019Z,27.40
2022-12-08T08:48:37.971Z,19.02
2022-12-08T08:51:12.759Z,28.33
2022-12-08T08:53:39.869Z,23.95
2022-12-08T08:56:14.235Z,25.25
2022-12-08T08:58:41.475Z,21.13
2022-12-08T09:01:08.689Z,25.65
2022-12-08T09:03:35.338Z,24.48
2022-12-08T09:06:02.073Z,32.65
2022-12-08T09:08:28.812Z,22.88
2022-12-08T09:10:55.660Z,25.73
2022-12-08T09:13:22.300Z,30.75
2022-12-08T09:15:49.154Z,30.58
2022-12-08T09:18:15.816Z,28.02
2022-12-08T09:20:42.683Z,25.50
2022-12-08T09:23:09.402Z,27.85
2022-12-08T09:25:36.791Z,26.33
2022-12-08T09:28:03.540Z,23.55
2022-12-08T09:30:30.200Z,18.63
2022-12-08T09:32:56.935Z,25.10
2022-12-08T09:35:23.577Z,25.55
2022-12-08T09:37:50.290Z,20.42
2022-12-08T09:40:20.198Z,31.67
2022-12-08T09:43:07.347Z,29.27
2022-12-08T09:45:36.080Z,21.08
2022-12-08T09:48:05.792Z,21.77
2022-12-08T09:50:48.267Z,20.98
2022-12-08T09:53:44.729Z,26.70
2022-12-08T09:56:27.029Z,23.50
2022-12-08T09:58:58.560Z,18.15
2022-12-08T10:01:32.783Z,24.90
2022-12-08T10:04:00.363Z,24.80
2022-12-08T10:06:44.483Z,16.05
2022-12-08T10:09:31.849Z,22.55
2022-12-08T10:12:17.656Z,18.50
2022-12-08T10:15:05.212Z,15.60
2022-12-08T10:17:44.498Z,16.60
2022-12-08T10:20:11.194Z,25.45
2022-12-08T10:22:44.285Z,16.42
2022-12-08T10:25:19.321Z,22.77
2022-12-08T10:27:51.292Z,32.65
2022-12-08T10:30:20.256Z,17.35
2022-12-08T10:32:51.190Z,22.40
2022-12-08T10:38:00.269Z,10.35
2022-12-08T10:40:42.178Z,14.80
2022-12-08T10:43:22.945Z,31.38
2022-12-08T10:45:49.805Z,16.15
2022-12-08T10:48:20.362Z,19.35
2022-12-08T10:50:48.583Z,12.10
2022-12-08T10:53:27.602Z,15.88
2022-12-08T10:56:03.420Z,14.52
2022-12-08T10:58:42.098Z,13.10
2022-12-08T11:01:23.940Z,13.38
2022-12-08T11:04:07.090Z,16.00
2022-12-08T11:06:37.594Z,16.27
2022-12-08T11:09:15.283Z,14.35
2022-12-08T11:11:52.284Z,14.82
2022-12-08T11:14:24.509Z,15.18
2022-12-08T11:16:53.601Z,12.95
2022-12-08T11:19:25.662Z,14.70
2022-12-08T11:21:52.344Z,17.88
2022-12-08T11:24:25.954Z,17.60
2022-12-08T11:26:59.207Z,18.02
2022-12-08T11:29:27.862Z,16.60
2022-12-08T11:32:19.555Z,16.58
2022-12-08T11:34:50.672Z,14.10
2022-12-08T11:37:35.205Z,20.95
2022-12-08T11:40:08.034Z,15.20
2022-12-08T11:42:55.302Z,15.07
2022-12-08T11:45:27.979Z,14.95
2022-12-08T11:48:26.242Z,14.23
2022-12-08T11:51:03.827Z,14.65
2022-12-08T11:53:30.431Z,15.57
2022-12-08T11:56:06.199Z,18.15
2022-12-08T11:58:44.465Z,18.33
2022-12-08T12:01:20.925Z,13.77
2022-12-08T12:04:18.978Z,12.98
2022-12-08T12:07:26.382Z,17.35
2022-12-08T12:10:14.389Z,12.13
2022-12-08T12:12:47.139Z,14.57
2022-12-08T12:15:37.287Z,14.07
2022-12-08T12:18:03.925Z,14.40
2022-12-08T12:20:54.310Z,18.20
2022-12-08T12:23:38.987Z,14.18
2022-12-08T12:26:08.939Z,10.38
2022-12-08T12:28:49.602Z,15.30
2022-12-08T12:31:21.705Z,13.95
2022-12-08T12:33:50.000Z,22.48
2022-12-08T12:36:17.815Z,13.90
2022-12-08T12:39:06.098Z,16.63
2022-12-08T12:41:41.538Z,14.82
2022-12-08T12:44:10.246Z,14.05
2022-12-08T12:46:36.924Z,15.65
2022-12-08T12:49:35.543Z,13.85
2022-12-08T12:52:02.322Z,18.08
2022-12-08T12:54:31.899Z,14.27
2022-12-08T12:57:04.619Z,11.57
2022-12-08T12:59:55.188Z,15.02
2022-12-08T13:02:30.372Z,10.55
2022-12-08T13:05:21.311Z,14.48
2022-12-08T13:08:03.512Z,13.25
2022-12-08T13:10:36.323Z,15.13
2022-12-08T13:13:07.507Z,13.23
2022-12-08T13:15:58.919Z,11.13
2022-12-08T13:18:34.798Z,13.90
2022-12-08T13:21:10.413Z,12.70
2022-12-08T13:23:37.039Z,11.55
2022-12-08T13:26:15.898Z,16.50
2022-12-08T13:29:03.956Z,13.70
2022-12-08T13:31:51.927Z,13.65
2022-12-08T13:34:51.417Z,18.50
2022-12-08T13:37:26.803Z,15.63
2022-12-08T13:40:09.326Z,12.05
2022-12-08T13:43:01.734Z,13.70
2022-12-08T13:46:20.208Z,11.70
2022-12-08T13:49:45.364Z,14.88
2022-12-08T13:55:01.366Z,12.43
2022-12-08T13:57:13.980Z,13.52
2022-12-08T13:59:45.213Z,14.23
2022-12-08T14:02:35.807Z,13.88
2022-12-08T14:05:34.594Z,12.07
2022-12-08T14:07:55.992Z,14.07
2022-12-08T14:10:26.944Z,11.13
2022-12-08T14:13:00.693Z,12.38
2022-12-08T14:15:31.256Z,12.48
2022-12-08T14:18:00.850Z,20.98
2022-12-08T14:20:33.850Z,16.10
2022-12-08T14:23:09.296Z,16.05
2022-12-08T14:25:36.211Z,12.20
2022-12-08T14:28:05.374Z,10.63
2022-12-08T14:30:34.141Z,13.10
2022-12-08T14:33:03.360Z,13.45
2022-12-08T14:35:39.918Z,12.38
2022-12-08T14:38:15.327Z,12.52
2022-12-08T14:40:44.171Z,11.10
2022-12-08T14:43:12.138Z,11.75
2022-12-08T14:45:45.093Z,13.27
2022-12-08T14:48:30.438Z,15.15
2022-12-08T14:51:06.208Z,10.25
2022-12-08T14:53:40.867Z,11.75
2022-12-08T14:56:15.139Z,17.90
2022-12-08T14:58:42.109Z,14.15
2022-12-08T15:01:13.475Z,10.63
2022-12-08T15:03:43.564Z,17.30
2022-12-08T15:06:12.776Z,9.95
2022-12-08T15:09:00.836Z,14.13
2022-12-08T15:11:33.206Z,12.35
2022-12-08T15:14:00.419Z,16.02
2022-12-08T15:16:43.698Z,16.08
2022-12-08T15:19:27.632Z,24.15
2022-12-08T15:21:56.619Z,18.27
2022-12-08T15:24:26.710Z,19.60
2022-12-08T15:26:54.130Z,26.17
2022-12-08T15:29:29.271Z,19.25
2022-12-08T15:31:58.884Z,22.48
2022-12-08T15:34:25.818Z,20.90
2022-12-08T15:36:54.631Z,28.75
2022-12-08T15:39:33.053Z,22.15
2022-12-08T15:42:00.840Z,20.85
2022-12-08T15:44:29.245Z,24.90
2022-12-08T15:46:56.459Z,24.35
2022-12-08T15:49:24.664Z,28.45
2022-12-08T15:51:57.369Z,21.80
2022-12-08T15:54:31.728Z,24.05
2022-12-08T15:59:45.622Z,26.25
2022-12-08T16:02:19.316Z,22.13
2022-12-08T16:07:38.246Z,21.23
2022-12-08T16:10:06.862Z,25.75
2022-12-08T16:16:00.704Z,20.35
2022-12-08T16:18:37.861Z,25.83
2022-12-08T16:21:13.907Z,30.25
2022-12-08T16:23:49.427Z,29.80
2022-12-08T16:27:28.495Z,35.10
2022-12-08T16:29:13.462Z,25.55
2022-12-08T16:31:40.261Z,22.95
2022-12-08T16:34:06.980Z,31.92
2022-12-08T16:36:33.913Z,24.10
2022-12-08T16:39:00.955Z,33.22
2022-12-08T16:41:46.169Z,31.73
2022-12-08T16:44:12.882Z,24.92
2022-12-08T16:46:39.798Z,31.27
2022-12-08T16:49:08.848Z,24.08
2022-12-08T16:51:35.617Z,38.33
2022-12-08T16:54:02.365Z,26.27
2022-12-08T16:56:32.989Z,36.25
2022-12-08T16:59:01.315Z,31.90
2022-12-08T17:01:28.102Z,25.48
2022-12-08T17:06:41.712Z,37.42
2022-12-08T17:09:08.532Z,28.02
2022-12-08T17:11:42.287Z,28.35
2022-12-08T17:14:10.100Z,36.42
2022-12-08T17:16:36.941Z,32.65
2022-12-08T17:19:03.725Z,31.20
2022-12-08T17:21:30.621Z,35.50
2022-12-08T17:23:57.468Z,30.60
2022-12-08T17:26:24.217Z,31.85
2022-12-08T17:29:02.547Z,25.35
2022-12-08T17:31:31.640Z,31.35
2022-12-08T17:34:10.701Z,29.02
2022-12-08T17:36:37.682Z,31.40
2022-12-08T17:39:05.172Z,28.90
2022-12-08T17:41:32.184Z,29.52
2022-12-08T17:43:59.141Z,26.50
2022-12-08T17:46:25.916Z,29.58
2022-12-08T17:49:02.754Z,27.00
2022-12-08T17:51:32.750Z,31.27
2022-12-08T17:53:59.505Z,29.83
2022-12-08T17:56:26.269Z,29.23
2022-12-08T17:58:54.976Z,38.72
2022-12-08T18:01:23.159Z,33.85
2022-12-08T18:03:50.209Z,30.60
2022-12-08T18:06:17.664Z,35.97
2022-12-08T18:08:44.531Z,32.00
2022-12-08T18:11:17.837Z,39.33
2022-12-08T18:13:45.257Z,47.65
2022-12-08T18:16:12.385Z,37.70
2022-12-08T18:18:39.386Z,34.15
2022-12-08T18:21:06.899Z,33.58
2022-12-08T18:23:34.855Z,41.13
2022-12-08T18:26:04.738Z,27.90
2022-12-08T18:28:31.570Z,36.40
2022-12-08T18:30:58.502Z,33.88
2022-12-08T18:33:25.832Z,36.95
2022-12-08T18:35:52.961Z,41.80
2022-12-08T18:38:20.794Z,35.15
2022-12-08T18:40:47.515Z,33.15
2022-12-08T18:43:14.307Z,32.53
2022-12-08T18:45:41.137Z,32.97
2022-12-08T18:48:08.085Z,80.50
2022-12-08T18:50:34.777Z,44.70
2022-12-08T18:53:01.496Z,34.63
2022-12-08T18:55:28.201Z,44.67
2022-12-08T18:57:55.186Z,36.05
2022-12-08T19:00:21.988Z,37.20
2022-12-08T19:02:48.900Z,38.72
2022-12-08T19:05:15.777Z,42.70
2022-12-08T19:07:42.948Z,33.28
2022-12-08T19:10:10.530Z,31.80
2022-12-08T19:12:37.577Z,33.25
2022-12-08T19:15:05.259Z,31.95
2022-12-08T19:17:32.361Z,32.10
2022-12-08T19:19:59.224Z,34.10
2022-12-08T19:22:25.929Z,33.55
2022-12-08T19:24:52.719Z,34.33
2022-12-08T19:27:19.582Z,36.42
2022-12-08T19:29:46.637Z,42.90
2022-12-08T19:32:13.737Z,36.03
2022-12-08T19:34:40.641Z,34.90
2022-12-08T19:37:08.911Z,25.55
2022-12-08T19:39:58.507Z,40.05
2022-12-08T19:45:17.176Z,26.52
2022-12-08T19:47:44.758Z,33.20
2022-12-08T19:50:32.284Z,30.23
2022-12-08T19:53:12.912Z,34.17
2022-12-08T19:55:41.252Z,40.25
2022-12-08T19:58:08.844Z,35.88
2022-12-08T20:00:37.377Z,42.40
2022-12-08T20:03:05.160Z,36.60
2022-12-08T20:05:35.276Z,31.17
2022-12-08T20:08:02.372Z,31.65
2022-12-08T20:10:33.750Z,29.50
2022-12-08T20:13:19.385Z,24.98
2022-12-08T20:15:46.608Z,25.40
2022-12-08T20:18:15.098Z,23.52
2022-12-08T20:20:42.477Z,24.17
2022-12-08T20:23:09.436Z,26.88
2022-12-08T20:25:40.900Z,24.75
2022-12-08T20:28:08.011Z,25.80
2022-12-08T20:30:35.436Z,23.92
2022-12-08T20:33:02.291Z,32.40
2022-12-08T20:35:29.004Z,35.65
2022-12-08T20:37:55.794Z,28.70
2022-12-08T20:40:22.523Z,31.58
2022-12-08T20:42:49.358Z,34.67
2022-12-08T20:45:16.239Z,38.95
2022-12-08T20:47:43.024Z,25.98
2022-12-08T20:50:10.627Z,34.35
2022-12-08T20:52:38.617Z,33.63
2022-12-08T20:55:07.317Z,31.83
2022-12-08T20:57:34.471Z,32.72
2022-12-08T21:00:01.602Z,28.08
2022-12-08T21:02:28.632Z,26.50
2022-12-08T21:04:55.738Z,32.42
2022-12-08T21:07:22.494Z,46.58
2022-12-08T21:09:49.358Z,44.40
2022-12-08T21:12:16.184Z,38.70
2022-12-08T21:14:43.820Z,27.10
2022-12-08T21:17:10.755Z,24.17
2022-12-08T21:19:37.794Z,26.58
2022-12-08T21:22:04.534Z,31.80
2022-12-08T21:24:34.405Z,41.15
2022-12-08T21:27:02.001Z,31.63
2022-12-08T21:29:29.014Z,28.90
2022-12-08T21:31:58.778Z,25.42
2022-12-08T21:34:26.673Z,30.35
2022-12-08T21:36:53.542Z,26.02
2022-12-08T21:39:20.510Z,23.33
2022-12-08T21:42:05.962Z,21.73
2022-12-08T21:44:35.397Z,27.48
2022-12-08T21:47:06.033Z,31.17
2022-12-08T21:49:37.388Z,30.17
2022-12-08T21:52:04.366Z,30.10
2022-12-08T21:54:31.528Z,27.02
2022-12-08T21:56:58.682Z,31.10
2022-12-08T21:59:25.662Z,33.40
2022-12-08T22:01:52.608Z,28.20
2022-12-08T22:04:21.902Z,24.98
2022-12-08T22:06:49.072Z,31.42
2022-12-08T22:09:16.186Z,29.30
2022-12-08T22:11:43.975Z,24.83
2022-12-08T22:14:14.862Z,22.48
2022-12-08T22:16:43.099Z,29.40
2022-12-08T22:19:10.392Z,25.02
2022-12-08T22:21:38.436Z,29.83
2022-12-08T22:24:05.857Z,24.00
2022-12-08T22:26:33.206Z,33.28
2022-12-08T22:29:00.548Z,25.65
2022-12-08T22:31:28.476Z,28.88
2022-12-08T22:33:55.992Z,26.23
2022-12-08T22:36:25.401Z,25.90
2022-12-08T22:38:53.908Z,25.42
2022-12-08T22:41:22.167Z,34.42
2022-12-08T22:43:50.409Z,29.65
2022-12-08T22:46:22.712Z,32.42
2022-12-08T22:48:50.705Z,33.58
2022-12-08T22:51:18.809Z,31.40
2022-12-08T22:53:46.650Z,30.23
2022-12-08T22:56:15.068Z,31.38
2022-12-08T22:58:42.357Z,22.17
2022-12-08T23:01:09.146Z,21.60
2022-12-08T23:03:38.485Z,34.88
2022-12-08T23:06:13.005Z,21.83
2022-12-08T23:08:40.307Z,25.33
2022-12-08T23:11:07.375Z,23.73
2022-12-08T23:13:34.193Z,24.10
2022-12-08T23:16:00.893Z,32.17
2022-12-08T23:18:27.597Z,35.08
2022-12-08T23:20:54.428Z,37.60
2022-12-08T23:23:22.572Z,29.42
2022-12-08T23:25:49.359Z,26.60
2022-12-08T23:28:16.203Z,30.45
2022-12-08T23:30:43.131Z,30.23
2022-12-08T23:33:09.945Z,26.90
2022-12-08T23:35:36.860Z,37.75
2022-12-08T23:38:04.256Z,24.92
2022-12-08T23:40:31.459Z,27.92
2022-12-08T23:42:58.210Z,24.88
2022-12-08T23:45:25.717Z,29.27
2022-12-08T23:47:52.589Z,29.38
2022-12-08T23:50:19.332Z,30.73
2022-12-08T23:52:46.349Z,32.47
2022-12-08T23:55:13.177Z,34.58
2022-12-08T23:57:40.196Z,33.55
